Time;durP1;ratioP1;P1;durP2;ratioP2;P2;SDS_P1;SDS_P2;PMS_P1;PMS_P2;Temp;Humidity;BMP_temperature;BMP_pressure;BME280_temperature;BME280_humidity;BME280_pressure;Samples;Min_cycle;Max_cycle;Signal;HPM_P1;HPM_P2
2021/05/31 00:06:09;;;;;;;1.10;0.97;;;20.40;99.90;;;;;;20537332;28;20575;-67
2021/05/31 00:16:14;;;;;;;0.60;0.37;;;20.30;99.90;;;;;;20634470;28;20222;-66
2021/05/31 00:26:18;;;;;;;0.20;0.10;;;20.60;99.90;;;;;;20674961;28;20206;-67
2021/05/31 00:36:22;;;;;;;1.33;0.60;;;20.60;99.90;;;;;;20692399;28;20225;-66
2021/05/31 00:46:25;;;;;;;1.33;0.70;;;20.60;99.90;;;;;;20692842;28;20217;-67
2021/05/31 00:56:30;;;;;;;0.90;0.87;;;20.80;99.90;;;;;;20692043;28;20237;-67
2021/05/31 01:06:36;;;;;;;0.73;0.33;;;20.80;99.90;;;;;;20690648;28;20441;-69
2021/05/31 01:16:47;;;;;;;1.13;0.90;;;21.00;99.90;;;;;;20692921;28;20226;-66
2021/05/31 01:27:06;;;;;;;1.10;0.40;;;20.90;99.90;;;;;;20692178;28;20206;-67
2021/05/31 01:37:15;;;;;;;0.50;0.40;;;20.80;99.90;;;;;;20689752;28;20226;-68
2021/05/31 01:47:19;;;;;;;0.67;0.47;;;20.70;99.90;;;;;;20706012;28;20785;-67
2021/05/31 01:57:24;;;;;;;1.43;0.40;;;20.80;99.90;;;;;;20685508;28;20269;-67
2021/05/31 02:07:27;;;;;;;0.83;0.77;;;20.80;99.90;;;;;;20704701;28;20234;-66
2021/05/31 02:17:37;;;;;;;0.60;0.60;;;21.00;99.90;;;;;;20701227;28;20233;-66
2021/05/31 02:27:41;;;;;;;0.33;0.33;;;20.90;99.90;;;;;;20683949;28;20651;-66
2021/05/31 02:37:46;;;;;;;1.27;0.60;;;21.00;99.90;;;;;;20701989;28;20230;-67
2021/05/31 02:47:51;;;;;;;5.80;0.80;;;20.90;99.90;;;;;;20697751;28;20216;-67
2021/05/31 02:57:57;;;;;;;0.70;0.40;;;20.70;99.90;;;;;;20681922;28;20238;-67
2021/05/31 03:08:00;;;;;;;0.37;0.33;;;20.80;99.90;;;;;;20642561;23;20232;-67
2021/05/31 03:18:07;;;;;;;1.13;0.67;;;20.90;99.90;;;;;;20600504;28;20289;-67
2021/05/31 03:28:10;;;;;;;0.30;0.30;;;20.80;99.90;;;;;;20596612;28;20214;-67
2021/05/31 03:38:14;;;;;;;0.70;0.47;;;20.80;99.90;;;;;;20616909;28;20633;-67
2021/05/31 03:48:17;;;;;;;0.40;0.27;;;20.80;99.90;;;;;;20614100;28;20211;-67
2021/05/31 03:58:25;;;;;;;0.33;0.30;;;20.90;99.90;;;;;;20613551;28;20379;-67
2021/05/31 04:18:51;;;;;;;1.23;1.13;;;20.40;99.90;;;;;;20593592;28;20271;-66
2021/05/31 04:28:54;;;;;;;0.77;0.60;;;20.40;99.90;;;;;;20611099;28;20417;-68
2021/05/31 04:39:00;;;;;;;2.37;0.83;;;20.20;99.90;;;;;;20594414;28;20219;-66
2021/05/31 04:49:04;;;;;;;2.10;0.80;;;20.10;99.90;;;;;;20610067;28;20206;-68
2021/05/31 04:59:08;;;;;;;0.23;0.20;;;19.60;99.90;;;;;;20608915;28;20234;-65
2021/05/31 05:09:11;;;;;;;1.50;0.53;;;19.90;99.90;;;;;;20623826;28;20227;-66
2021/05/31 05:19:16;;;;;;;1.17;1.00;;;19.80;99.90;;;;;;20624891;28;20231;-67
2021/05/31 05:29:20;;;;;;;0.37;0.37;;;20.20;99.90;;;;;;20624809;28;20203;-66
2021/05/31 05:39:56;;;;;;;0.27;0.27;;;20.70;99.90;;;;;;20624235;28;20271;-66
2021/05/31 05:49:59;;;;;;;0.53;0.33;;;21.00;99.90;;;;;;20621493;28;20200;-67
2021/05/31 06:00:07;;;;;;;0.30;0.23;;;21.70;99.90;;;;;;20618709;28;20262;-66
2021/05/31 06:10:11;;;;;;;0.20;0.20;;;21.90;99.90;;;;;;20597693;28;20636;-68
2021/05/31 06:20:16;;;;;;;0.50;0.43;;;22.10;99.90;;;;;;20669414;28;20590;-66
2021/05/31 06:30:21;;;;;;;0.90;0.63;;;22.10;99.90;;;;;;20616547;28;20200;-67
2021/05/31 06:40:25;;;;;;;1.00;0.77;;;21.90;99.90;;;;;;20616823;28;20228;-66
2021/05/31 06:50:31;;;;;;;0.77;0.77;;;22.50;99.90;;;;;;20616690;28;20499;-66
2021/05/31 07:00:35;;;;;;;0.80;0.47;;;22.60;99.90;;;;;;20616157;28;20244;-67
2021/05/31 07:10:39;;;;;;;2.20;1.47;;;22.50;99.90;;;;;;20601934;28;20265;-67
2021/05/31 07:20:44;;;;;;;1.70;0.60;;;22.40;99.90;;;;;;20532177;28;20232;-67
2021/05/31 07:30:47;;;;;;;2.53;1.60;;;22.80;99.90;;;;;;20523653;28;20283;-66
2021/05/31 07:40:52;;;;;;;0.73;0.73;;;22.60;99.90;;;;;;20501536;28;20730;-67
2021/05/31 07:51:14;;;;;;;0.97;0.80;;;22.80;99.90;;;;;;20513717;28;20197;-66
2021/05/31 08:01:19;;;;;;;0.73;0.73;;;23.20;99.90;;;;;;20534441;28;20239;-67
2021/05/31 08:11:22;;;;;;;1.47;1.10;;;22.50;99.90;;;;;;20610397;28;20330;-67
2021/05/31 08:21:26;;;;;;;1.10;1.00;;;22.70;99.90;;;;;;20594395;28;20231;-66
2021/05/31 08:31:30;;;;;;;6.73;0.67;;;22.60;99.90;;;;;;20608566;28;20195;-66
2021/05/31 08:41:35;;;;;;;2.23;1.10;;;22.90;99.90;;;;;;20609307;28;21137;-66
2021/05/31 08:51:39;;;;;;;0.60;0.40;;;23.50;99.90;;;;;;20605385;28;20205;-67
2021/05/31 09:01:44;;;;;;;0.87;0.87;;;23.00;99.90;;;;;;20607468;28;20258;-67
2021/05/31 09:11:55;;;;;;;1.00;0.83;;;23.00;99.90;;;;;;20606685;28;20203;-66
2021/05/31 09:22:03;;;;;;;0.47;0.40;;;22.80;99.90;;;;;;20592404;28;20301;-65
2021/05/31 09:32:09;;;;;;;0.90;0.63;;;23.40;99.90;;;;;;20608917;28;20203;-65
2021/05/31 09:42:16;;;;;;;4.47;1.63;;;23.00;99.90;;;;;;20604138;28;20226;-66
2021/05/31 09:52:19;;;;;;;0.50;0.50;;;23.40;99.90;;;;;;20614258;28;20214;-63
2021/05/31 10:02:38;;;;;;;1.63;1.00;;;23.40;99.90;;;;;;20601407;28;20234;-63
2021/05/31 10:12:41;;;;;;;1.00;0.90;;;23.50;99.90;;;;;;20601396;28;20215;-65
2021/05/31 10:22:46;;;;;;;0.83;0.57;;;23.40;99.90;;;;;;20619484;28;20611;-63
2021/05/31 10:32:52;;;;;;;0.60;0.57;;;24.00;99.90;;;;;;20617860;28;20223;-66
2021/05/31 10:42:58;;;;;;;1.13;0.77;;;23.80;99.90;;;;;;20615885;28;20210;-64
2021/05/31 10:53:01;;;;;;;1.55;0.73;;;23.60;99.90;;;;;;20597575;28;20215;-66
2021/05/31 11:03:08;;;;;;;1.48;1.15;;;24.50;99.90;;;;;;20618781;28;20226;-66
2021/05/31 11:13:15;;;;;;;0.77;0.73;;;24.80;99.90;;;;;;20622527;28;20219;-67
2021/05/31 11:23:19;;;;;;;2.28;1.75;;;24.80;99.90;;;;;;20614993;28;20199;-68
2021/05/31 11:33:22;;;;;;;0.35;0.35;;;24.60;99.90;;;;;;20613621;28;20491;-66
2021/05/31 11:43:29;;;;;;;0.75;0.38;;;25.90;99.90;;;;;;20611965;28;20258;-67
2021/05/31 11:53:32;;;;;;;0.65;0.50;;;26.20;99.90;;;;;;20612134;28;20652;-68
2021/05/31 12:03:38;;;;;;;3.80;0.90;;;26.90;99.90;;;;;;20609055;28;20231;-67
2021/05/31 12:13:41;;;;;;;1.27;1.00;;;25.90;99.90;;;;;;20607457;28;20241;-67
2021/05/31 12:23:49;;;;;;;0.50;0.45;;;25.00;99.90;;;;;;20603819;28;20223;-66
2021/05/31 12:33:58;;;;;;;0.90;0.40;;;25.00;99.90;;;;;;20600392;28;20246;-66
2021/05/31 12:44:06;;;;;;;3.47;0.93;;;25.10;99.90;;;;;;20603035;28;20720;-66
2021/05/31 12:54:10;;;;;;;0.70;0.70;;;25.20;99.90;;;;;;20608088;28;20219;-66
2021/05/31 13:04:14;;;;;;;0.60;0.50;;;26.40;99.90;;;;;;20545423;28;1217192;-66
2021/05/31 13:14:19;;;;;;;0.88;0.88;;;24.60;99.90;;;;;;20593875;28;20215;-65
2021/05/31 13:24:25;;;;;;;0.57;0.45;;;24.80;99.90;;;;;;20592904;28;20669;-64
2021/05/31 13:34:33;;;;;;;0.38;0.28;;;25.90;99.90;;;;;;20606033;28;20231;-66
2021/05/31 13:44:38;;;;;;;0.52;0.52;;;25.30;99.90;;;;;;20619543;28;20203;-65
2021/05/31 13:54:41;;;;;;;0.90;0.50;;;26.40;99.90;;;;;;20621113;28;20696;-66
2021/05/31 14:04:46;;;;;;;0.20;0.20;;;27.70;99.90;;;;;;20619617;28;20235;-64
2021/05/31 14:14:49;;;;;;;1.30;0.63;;;28.80;99.90;;;;;;20620309;28;20338;-65
2021/05/31 14:24:54;;;;;;;0.65;0.63;;;25.80;99.90;;;;;;20617702;28;20199;-64
2021/05/31 14:34:57;;;;;;;0.60;0.20;;;25.80;99.90;;;;;;20618462;28;20414;-65
2021/05/31 14:45:03;;;;;;;0.55;0.55;;;27.10;99.90;;;;;;20613551;28;20253;-65
2021/05/31 14:55:08;;;;;;;0.43;0.43;;;26.20;99.90;;;;;;20666065;28;20234;-64
2021/05/31 15:05:17;;;;;;;2.97;1.05;;;26.30;99.90;;;;;;20622895;28;20227;-65
2021/05/31 15:15:20;;;;;;;0.20;0.10;;;27.60;99.90;;;;;;20580416;28;20219;-66
2021/05/31 15:25:25;;;;;;;0.95;0.88;;;26.50;99.90;;;;;;20613736;28;20561;-66
2021/05/31 15:35:28;;;;;;;0.40;0.30;;;27.30;99.90;;;;;;20595223;28;20942;-64
2021/05/31 15:45:34;;;;;;;0.73;0.47;;;29.70;99.90;;;;;;20632447;28;20209;-64
2021/05/31 15:55:43;;;;;;;0.95;0.88;;;29.90;99.90;;;;;;20676330;28;20230;-63
2021/05/31 16:05:48;;;;;;;0.40;0.22;;;30.00;99.90;;;;;;20633884;28;20231;-65
2021/05/31 16:15:51;;;;;;;1.75;0.60;;;26.00;99.90;;;;;;20665990;28;20238;-66
2021/05/31 16:25:55;;;;;;;0.88;0.50;;;27.70;99.90;;;;;;20690637;28;20210;-66
2021/05/31 16:35:58;;;;;;;3.60;0.63;;;27.10;99.90;;;;;;20687670;28;20241;-65
2021/05/31 16:46:04;;;;;;;0.20;0.20;;;26.60;99.90;;;;;;20629022;28;20309;-66
2021/05/31 16:56:18;;;;;;;1.55;0.70;;;26.70;99.90;;;;;;20605197;28;20681;-68
2021/05/31 17:06:28;;;;;;;0.73;0.35;;;25.40;99.90;;;;;;20587556;28;20230;-65
2021/05/31 17:26:56;;;;;;;4.77;1.70;;;24.10;99.90;;;;;;20589470;28;20196;-66
2021/05/31 17:36:59;;;;;;;0.40;0.38;;;23.80;99.90;;;;;;20588127;28;20219;-66
2021/05/31 17:47:03;;;;;;;0.40;0.20;;;25.20;99.90;;;;;;20603600;28;20199;-66
2021/05/31 17:57:07;;;;;;;1.48;1.05;;;24.20;99.90;;;;;;20604562;28;20735;-65
2021/05/31 18:07:12;;;;;;;0.55;0.22;;;23.50;99.90;;;;;;20605047;28;20223;-66
2021/05/31 18:17:17;;;;;;;2.08;0.68;;;23.60;99.90;;;;;;20599041;28;20342;-66
2021/05/31 18:27:22;;;;;;;0.60;0.60;;;23.70;99.90;;;;;;20613758;28;20231;-65
2021/05/31 18:37:29;;;;;;;0.57;0.57;;;24.20;99.90;;;;;;20617319;28;20606;-67
2021/05/31 18:47:33;;;;;;;1.48;0.40;;;24.50;99.90;;;;;;20617360;28;20275;-67
2021/05/31 18:57:36;;;;;;;1.07;0.37;;;23.30;99.90;;;;;;20618349;28;21063;-68
2021/05/31 19:07:41;;;;;;;0.50;0.20;;;22.70;99.90;;;;;;20614311;28;20223;-67
2021/05/31 19:17:44;;;;;;;2.20;0.57;;;22.20;99.90;;;;;;20615728;28;20864;-67
2021/05/31 19:27:49;;;;;;;0.30;0.30;;;21.80;99.90;;;;;;20594978;28;20278;-67
2021/05/31 19:37:53;;;;;;;1.40;0.80;;;21.60;99.90;;;;;;20614641;28;20239;-67
2021/05/31 19:47:57;;;;;;;1.53;0.73;;;21.40;99.90;;;;;;20614057;28;20678;-67
2021/05/31 20:08:23;;;;;;;0.83;0.47;;;21.30;99.90;;;;;;20581801;28;20725;-67
2021/05/31 20:18:27;;;;;;;0.70;0.57;;;21.10;99.90;;;;;;20611670;28;20723;-67
2021/05/31 20:28:31;;;;;;;0.50;0.50;;;20.70;99.90;;;;;;20611855;28;20196;-67
2021/05/31 20:38:38;;;;;;;0.53;0.53;;;20.70;99.90;;;;;;20611460;28;20307;-66
2021/05/31 20:48:42;;;;;;;0.20;0.20;;;20.70;99.90;;;;;;20609935;28;20604;-66
2021/05/31 20:58:46;;;;;;;3.43;1.07;;;20.50;99.90;;;;;;20610925;28;20247;-67
2021/05/31 21:08:54;;;;;;;0.93;0.60;;;20.30;99.90;;;;;;20591222;28;20227;-67
2021/05/31 21:19:01;;;;;;;1.13;0.57;;;20.00;99.90;;;;;;20611200;28;20535;-67
2021/05/31 21:29:06;;;;;;;1.63;0.80;;;19.90;99.90;;;;;;20675142;28;20665;-67
2021/05/31 21:39:09;;;;;;;2.13;1.13;;;19.80;99.90;;;;;;20690346;28;20222;-68
2021/05/31 21:49:16;;;;;;;0.20;0.20;;;19.80;99.90;;;;;;20699277;28;20574;-68
2021/05/31 21:59:19;;;;;;;0.60;0.53;;;19.90;99.90;;;;;;20697984;28;20692;-68
2021/05/31 22:09:25;;;;;;;0.70;0.67;;;19.80;99.90;;;;;;20622285;28;20238;-66
2021/05/31 22:19:33;;;;;;;0.57;0.37;;;19.70;99.90;;;;;;20621033;28;20579;-66
2021/05/31 22:40:01;;;;;;;0.80;0.43;;;19.50;99.90;;;;;;20586366;28;20243;-67
2021/05/31 23:21:16;;;;;;;0.57;0.20;;;19.00;99.90;;;;;;20616564;28;20223;-67
2021/05/31 23:31:21;;;;;;;0.23;0.20;;;19.10;99.90;;;;;;20614307;28;20207;-69
2021/05/31 23:41:28;;;;;;;0.77;0.23;;;19.10;99.90;;;;;;20614951;28;20227;-66
2021/05/31 23:51:35;;;;;;;6.73;0.53;;;19.30;99.90;;;;;;20616109;28;20195;-68
